sensor_id;sensor_type;location;lat;lon;timestamp;P1;durP1;ratioP1;P2;durP2;ratioP2
4806;SDS011;2417;52.482;13.432;2023-03-16T00:00:20;12.27;;;4.00;;
4806;SDS011;2417;52.482;13.432;2023-03-16T00:02:48;13.90;;;3.40;;
4806;SDS011;2417;52.482;13.432;2023-03-16T00:05:16;14.03;;;4.30;;
4806;SDS011;2417;52.482;13.432;2023-03-16T00:07:45;9.43;;;4.13;;
4806;SDS011;2417;52.482;13.432;2023-03-16T00:10:12;10.67;;;3.47;;
4806;SDS011;2417;52.482;13.432;2023-03-16T00:12:40;12.67;;;4.50;;
4806;SDS011;2417;52.482;13.432;2023-03-16T00:15:10;12.97;;;4.73;;
4806;SDS011;2417;52.482;13.432;2023-03-16T00:17:40;8.83;;;4.13;;
4806;SDS011;2417;52.482;13.432;2023-03-16T00:20:10;17.80;;;4.83;;
4806;SDS011;2417;52.482;13.432;2023-03-16T00:22:40;10.33;;;3.97;;
4806;SDS011;2417;52.482;13.432;2023-03-16T00:25:08;10.80;;;3.47;;
4806;SDS011;2417;52.482;13.432;2023-03-16T00:27:36;10.93;;;4.67;;
4806;SDS011;2417;52.482;13.432;2023-03-16T00:30:04;10.30;;;4.17;;
4806;SDS011;2417;52.482;13.432;2023-03-16T00:32:33;14.10;;;4.40;;
4806;SDS011;2417;52.482;13.432;2023-03-16T00:35:03;9.13;;;4.33;;
4806;SDS011;2417;52.482;13.432;2023-03-16T00:37:35;16.40;;;5.30;;
4806;SDS011;2417;52.482;13.432;2023-03-16T00:40:05;12.80;;;3.80;;
4806;SDS011;2417;52.482;13.432;2023-03-16T00:42:33;10.47;;;4.23;;
4806;SDS011;2417;52.482;13.432;2023-03-16T00:45:01;9.23;;;3.90;;
4806;SDS011;2417;52.482;13.432;2023-03-16T00:47:33;13.00;;;4.40;;
4806;SDS011;2417;52.482;13.432;2023-03-16T00:50:02;12.60;;;4.97;;
4806;SDS011;2417;52.482;13.432;2023-03-16T00:52:31;12.00;;;4.50;;
4806;SDS011;2417;52.482;13.432;2023-03-16T00:55:00;15.37;;;4.20;;
4806;SDS011;2417;52.482;13.432;2023-03-16T00:57:30;12.63;;;4.50;;
4806;SDS011;2417;52.482;13.432;2023-03-16T00:59:58;14.50;;;4.27;;
4806;SDS011;2417;52.482;13.432;2023-03-16T01:02:27;10.77;;;4.10;;
4806;SDS011;2417;52.482;13.432;2023-03-16T01:04:55;9.90;;;4.63;;
4806;SDS011;2417;52.482;13.432;2023-03-16T01:07:25;8.80;;;4.07;;
4806;SDS011;2417;52.482;13.432;2023-03-16T01:09:53;13.73;;;5.23;;
4806;SDS011;2417;52.482;13.432;2023-03-16T01:12:21;13.93;;;4.93;;
4806;SDS011;2417;52.482;13.432;2023-03-16T01:14:50;10.60;;;4.60;;
4806;SDS011;2417;52.482;13.432;2023-03-16T01:17:18;15.40;;;5.20;;
4806;SDS011;2417;52.482;13.432;2023-03-16T01:19:48;11.07;;;3.80;;
4806;SDS011;2417;52.482;13.432;2023-03-16T01:22:17;12.03;;;4.17;;
4806;SDS011;2417;52.482;13.432;2023-03-16T01:24:46;9.60;;;3.90;;
4806;SDS011;2417;52.482;13.432;2023-03-16T01:27:14;16.37;;;4.00;;
4806;SDS011;2417;52.482;13.432;2023-03-16T01:29:42;11.30;;;3.93;;
4806;SDS011;2417;52.482;13.432;2023-03-16T01:32:11;9.73;;;3.63;;
4806;SDS011;2417;52.482;13.432;2023-03-16T01:34:39;10.23;;;4.03;;
4806;SDS011;2417;52.482;13.432;2023-03-16T01:37:10;12.43;;;4.70;;
4806;SDS011;2417;52.482;13.432;2023-03-16T01:39:46;9.23;;;3.43;;
4806;SDS011;2417;52.482;13.432;2023-03-16T01:42:15;14.50;;;4.90;;
4806;SDS011;2417;52.482;13.432;2023-03-16T01:44:50;8.20;;;3.40;;
4806;SDS011;2417;52.482;13.432;2023-03-16T01:47:18;12.60;;;4.40;;
4806;SDS011;2417;52.482;13.432;2023-03-16T01:49:46;16.10;;;5.17;;
4806;SDS011;2417;52.482;13.432;2023-03-16T01:52:15;26.70;;;5.10;;
4806;SDS011;2417;52.482;13.432;2023-03-16T01:54:48;13.63;;;4.00;;
4806;SDS011;2417;52.482;13.432;2023-03-16T01:57:18;11.33;;;4.17;;
4806;SDS011;2417;52.482;13.432;2023-03-16T01:59:49;10.93;;;4.33;;
4806;SDS011;2417;52.482;13.432;2023-03-16T02:02:21;14.20;;;4.00;;
4806;SDS011;2417;52.482;13.432;2023-03-16T02:04:51;15.23;;;5.37;;
4806;SDS011;2417;52.482;13.432;2023-03-16T02:07:22;13.03;;;4.17;;
4806;SDS011;2417;52.482;13.432;2023-03-16T02:09:53;11.20;;;4.30;;
4806;SDS011;2417;52.482;13.432;2023-03-16T02:12:23;9.80;;;4.10;;
4806;SDS011;2417;52.482;13.432;2023-03-16T02:14:54;12.03;;;3.80;;
4806;SDS011;2417;52.482;13.432;2023-03-16T02:17:23;12.43;;;3.93;;
4806;SDS011;2417;52.482;13.432;2023-03-16T02:19:58;10.03;;;3.90;;
4806;SDS011;2417;52.482;13.432;2023-03-16T02:22:34;12.03;;;3.50;;
4806;SDS011;2417;52.482;13.432;2023-03-16T02:25:05;8.80;;;3.90;;
4806;SDS011;2417;52.482;13.432;2023-03-16T02:27:33;10.33;;;3.47;;
4806;SDS011;2417;52.482;13.432;2023-03-16T02:30:08;7.60;;;3.17;;
4806;SDS011;2417;52.482;13.432;2023-03-16T02:32:47;9.47;;;3.97;;
4806;SDS011;2417;52.482;13.432;2023-03-16T02:35:20;14.63;;;5.30;;
4806;SDS011;2417;52.482;13.432;2023-03-16T02:37:49;8.50;;;3.80;;
4806;SDS011;2417;52.482;13.432;2023-03-16T02:40:20;11.20;;;3.90;;
4806;SDS011;2417;52.482;13.432;2023-03-16T02:42:53;8.10;;;4.00;;
4806;SDS011;2417;52.482;13.432;2023-03-16T02:45:25;12.03;;;4.23;;
4806;SDS011;2417;52.482;13.432;2023-03-16T02:47:54;12.23;;;4.00;;
4806;SDS011;2417;52.482;13.432;2023-03-16T02:50:23;8.00;;;3.97;;
4806;SDS011;2417;52.482;13.432;2023-03-16T02:52:51;11.77;;;4.27;;
4806;SDS011;2417;52.482;13.432;2023-03-16T02:55:19;13.67;;;3.83;;
4806;SDS011;2417;52.482;13.432;2023-03-16T02:57:47;11.80;;;3.90;;
4806;SDS011;2417;52.482;13.432;2023-03-16T03:00:16;13.20;;;3.73;;
4806;SDS011;2417;52.482;13.432;2023-03-16T03:02:49;17.63;;;4.03;;
4806;SDS011;2417;52.482;13.432;2023-03-16T03:05:18;9.27;;;3.60;;
4806;SDS011;2417;52.482;13.432;2023-03-16T03:07:46;8.63;;;3.57;;
4806;SDS011;2417;52.482;13.432;2023-03-16T03:10:14;14.50;;;3.37;;
4806;SDS011;2417;52.482;13.432;2023-03-16T03:12:42;9.80;;;3.17;;
4806;SDS011;2417;52.482;13.432;2023-03-16T03:15:15;13.60;;;4.10;;
4806;SDS011;2417;52.482;13.432;2023-03-16T03:17:57;9.00;;;3.23;;
4806;SDS011;2417;52.482;13.432;2023-03-16T03:20:28;8.03;;;2.97;;
4806;SDS011;2417;52.482;13.432;2023-03-16T03:22:56;13.33;;;3.60;;
4806;SDS011;2417;52.482;13.432;2023-03-16T03:25:24;11.00;;;3.23;;
4806;SDS011;2417;52.482;13.432;2023-03-16T03:27:54;6.40;;;2.57;;
4806;SDS011;2417;52.482;13.432;2023-03-16T03:30:23;11.00;;;3.23;;
4806;SDS011;2417;52.482;13.432;2023-03-16T03:32:52;8.80;;;2.70;;
4806;SDS011;2417;52.482;13.432;2023-03-16T03:35:21;10.47;;;3.27;;
4806;SDS011;2417;52.482;13.432;2023-03-16T03:37:53;8.97;;;3.17;;
4806;SDS011;2417;52.482;13.432;2023-03-16T03:40:21;12.80;;;3.47;;
4806;SDS011;2417;52.482;13.432;2023-03-16T03:42:55;9.77;;;3.40;;
4806;SDS011;2417;52.482;13.432;2023-03-16T03:45:24;10.50;;;3.60;;
4806;SDS011;2417;52.482;13.432;2023-03-16T03:47:52;8.47;;;3.20;;
4806;SDS011;2417;52.482;13.432;2023-03-16T03:50:23;21.73;;;4.30;;
4806;SDS011;2417;52.482;13.432;2023-03-16T03:53:15;12.93;;;3.30;;
4806;SDS011;2417;52.482;13.432;2023-03-16T03:56:03;10.27;;;3.40;;
4806;SDS011;2417;52.482;13.432;2023-03-16T03:58:31;8.50;;;2.90;;
4806;SDS011;2417;52.482;13.432;2023-03-16T04:00:59;6.80;;;3.00;;
4806;SDS011;2417;52.482;13.432;2023-03-16T04:03:31;12.73;;;3.90;;
4806;SDS011;2417;52.482;13.432;2023-03-16T04:06:01;14.07;;;3.40;;
4806;SDS011;2417;52.482;13.432;2023-03-16T04:08:30;9.07;;;3.50;;
4806;SDS011;2417;52.482;13.432;2023-03-16T04:10:58;8.60;;;3.30;;
4806;SDS011;2417;52.482;13.432;2023-03-16T04:13:27;13.43;;;3.93;;
4806;SDS011;2417;52.482;13.432;2023-03-16T04:15:55;9.63;;;3.30;;
4806;SDS011;2417;52.482;13.432;2023-03-16T04:18:27;8.77;;;3.60;;
4806;SDS011;2417;52.482;13.432;2023-03-16T04:20:55;11.50;;;3.93;;
4806;SDS011;2417;52.482;13.432;2023-03-16T04:23:25;7.60;;;3.43;;
4806;SDS011;2417;52.482;13.432;2023-03-16T04:25:53;7.70;;;3.50;;
4806;SDS011;2417;52.482;13.432;2023-03-16T04:28:22;8.87;;;4.20;;
4806;SDS011;2417;52.482;13.432;2023-03-16T04:30:53;12.83;;;3.57;;
4806;SDS011;2417;52.482;13.432;2023-03-16T04:33:30;11.53;;;3.60;;
4806;SDS011;2417;52.482;13.432;2023-03-16T04:36:00;9.80;;;4.00;;
4806;SDS011;2417;52.482;13.432;2023-03-16T04:38:31;12.07;;;3.50;;
4806;SDS011;2417;52.482;13.432;2023-03-16T04:41:00;10.60;;;3.67;;
4806;SDS011;2417;52.482;13.432;2023-03-16T04:43:33;16.50;;;3.50;;
4806;SDS011;2417;52.482;13.432;2023-03-16T04:46:16;11.33;;;3.90;;
4806;SDS011;2417;52.482;13.432;2023-03-16T04:48:44;10.67;;;3.50;;
4806;SDS011;2417;52.482;13.432;2023-03-16T04:51:12;12.80;;;3.90;;
4806;SDS011;2417;52.482;13.432;2023-03-16T04:53:48;10.93;;;2.83;;
4806;SDS011;2417;52.482;13.432;2023-03-16T04:56:26;9.43;;;3.20;;
4806;SDS011;2417;52.482;13.432;2023-03-16T04:58:59;18.00;;;3.67;;
4806;SDS011;2417;52.482;13.432;2023-03-16T05:01:32;6.67;;;3.30;;
4806;SDS011;2417;52.482;13.432;2023-03-16T05:04:02;9.10;;;2.83;;
4806;SDS011;2417;52.482;13.432;2023-03-16T05:06:34;13.07;;;3.30;;
4806;SDS011;2417;52.482;13.432;2023-03-16T05:09:04;9.73;;;3.13;;
4806;SDS011;2417;52.482;13.432;2023-03-16T05:11:38;10.67;;;3.40;;
4806;SDS011;2417;52.482;13.432;2023-03-16T05:14:10;8.10;;;3.30;;
4806;SDS011;2417;52.482;13.432;2023-03-16T05:16:57;10.93;;;2.93;;
4806;SDS011;2417;52.482;13.432;2023-03-16T05:19:25;27.67;;;4.27;;
4806;SDS011;2417;52.482;13.432;2023-03-16T05:21:53;9.00;;;2.90;;
4806;SDS011;2417;52.482;13.432;2023-03-16T05:24:24;8.23;;;2.97;;
4806;SDS011;2417;52.482;13.432;2023-03-16T05:26:52;7.23;;;3.00;;
4806;SDS011;2417;52.482;13.432;2023-03-16T05:29:22;13.40;;;3.60;;
4806;SDS011;2417;52.482;13.432;2023-03-16T05:31:52;8.33;;;3.53;;
4806;SDS011;2417;52.482;13.432;2023-03-16T05:34:22;10.37;;;3.47;;
4806;SDS011;2417;52.482;13.432;2023-03-16T05:36:50;7.77;;;3.67;;
4806;SDS011;2417;52.482;13.432;2023-03-16T05:39:20;8.33;;;3.10;;
4806;SDS011;2417;52.482;13.432;2023-03-16T05:41:50;17.43;;;3.83;;
4806;SDS011;2417;52.482;13.432;2023-03-16T05:44:28;8.10;;;3.50;;
4806;SDS011;2417;52.482;13.432;2023-03-16T05:47:10;8.63;;;2.97;;
4806;SDS011;2417;52.482;13.432;2023-03-16T05:49:42;9.20;;;3.20;;
4806;SDS011;2417;52.482;13.432;2023-03-16T05:52:20;5.97;;;3.00;;
4806;SDS011;2417;52.482;13.432;2023-03-16T05:54:52;11.90;;;3.10;;
4806;SDS011;2417;52.482;13.432;2023-03-16T05:57:21;7.10;;;3.30;;
4806;SDS011;2417;52.482;13.432;2023-03-16T05:59:51;13.30;;;3.87;;
4806;SDS011;2417;52.482;13.432;2023-03-16T06:02:21;10.43;;;3.70;;
4806;SDS011;2417;52.482;13.432;2023-03-16T06:04:50;9.30;;;3.30;;
4806;SDS011;2417;52.482;13.432;2023-03-16T06:07:18;10.97;;;3.60;;
4806;SDS011;2417;52.482;13.432;2023-03-16T06:09:47;11.13;;;3.33;;
4806;SDS011;2417;52.482;13.432;2023-03-16T06:12:15;10.67;;;4.20;;
4806;SDS011;2417;52.482;13.432;2023-03-16T06:14:45;14.97;;;4.53;;
4806;SDS011;2417;52.482;13.432;2023-03-16T06:17:14;12.03;;;4.33;;
4806;SDS011;2417;52.482;13.432;2023-03-16T06:19:42;6.93;;;2.93;;
4806;SDS011;2417;52.482;13.432;2023-03-16T06:22:10;12.60;;;3.90;;
4806;SDS011;2417;52.482;13.432;2023-03-16T06:24:38;18.33;;;4.30;;
4806;SDS011;2417;52.482;13.432;2023-03-16T06:27:06;17.30;;;4.10;;
4806;SDS011;2417;52.482;13.432;2023-03-16T06:29:47;12.63;;;3.27;;
4806;SDS011;2417;52.482;13.432;2023-03-16T06:32:15;13.63;;;3.40;;
4806;SDS011;2417;52.482;13.432;2023-03-16T06:34:43;14.43;;;3.70;;
4806;SDS011;2417;52.482;13.432;2023-03-16T06:37:11;11.23;;;3.30;;
4806;SDS011;2417;52.482;13.432;2023-03-16T06:39:39;15.80;;;6.07;;
4806;SDS011;2417;52.482;13.432;2023-03-16T06:42:07;50.20;;;16.87;;
4806;SDS011;2417;52.482;13.432;2023-03-16T06:44:36;23.70;;;9.20;;
4806;SDS011;2417;52.482;13.432;2023-03-16T06:47:12;16.40;;;5.03;;
4806;SDS011;2417;52.482;13.432;2023-03-16T06:49:39;11.87;;;3.77;;
4806;SDS011;2417;52.482;13.432;2023-03-16T06:52:14;15.27;;;3.20;;
4806;SDS011;2417;52.482;13.432;2023-03-16T06:54:42;8.83;;;3.33;;
4806;SDS011;2417;52.482;13.432;2023-03-16T06:57:11;15.83;;;3.80;;
4806;SDS011;2417;52.482;13.432;2023-03-16T06:59:39;24.63;;;6.80;;
4806;SDS011;2417;52.482;13.432;2023-03-16T07:02:08;18.87;;;5.30;;
4806;SDS011;2417;52.482;13.432;2023-03-16T07:04:39;12.07;;;4.70;;
4806;SDS011;2417;52.482;13.432;2023-03-16T07:07:07;23.00;;;7.03;;
4806;SDS011;2417;52.482;13.432;2023-03-16T07:09:36;11.40;;;3.80;;
4806;SDS011;2417;52.482;13.432;2023-03-16T07:12:10;13.87;;;5.10;;
4806;SDS011;2417;52.482;13.432;2023-03-16T07:14:39;14.70;;;4.37;;
4806;SDS011;2417;52.482;13.432;2023-03-16T07:17:10;18.17;;;6.20;;
4806;SDS011;2417;52.482;13.432;2023-03-16T07:19:39;11.63;;;3.60;;
4806;SDS011;2417;52.482;13.432;2023-03-16T07:22:07;11.90;;;4.30;;
4806;SDS011;2417;52.482;13.432;2023-03-16T07:24:37;7.93;;;3.03;;
4806;SDS011;2417;52.482;13.432;2023-03-16T07:27:05;16.33;;;3.63;;
4806;SDS011;2417;52.482;13.432;2023-03-16T07:29:35;9.27;;;3.70;;
4806;SDS011;2417;52.482;13.432;2023-03-16T07:32:04;9.37;;;3.03;;
4806;SDS011;2417;52.482;13.432;2023-03-16T07:34:36;9.83;;;3.10;;
4806;SDS011;2417;52.482;13.432;2023-03-16T07:37:07;7.60;;;3.37;;
4806;SDS011;2417;52.482;13.432;2023-03-16T07:39:35;13.40;;;3.50;;
4806;SDS011;2417;52.482;13.432;2023-03-16T07:42:09;11.40;;;3.10;;
4806;SDS011;2417;52.482;13.432;2023-03-16T07:44:47;16.20;;;3.30;;
4806;SDS011;2417;52.482;13.432;2023-03-16T07:47:17;11.20;;;2.93;;
4806;SDS011;2417;52.482;13.432;2023-03-16T07:49:47;12.40;;;2.90;;
4806;SDS011;2417;52.482;13.432;2023-03-16T07:52:17;12.07;;;2.40;;
4806;SDS011;2417;52.482;13.432;2023-03-16T07:54:46;8.87;;;3.00;;
4806;SDS011;2417;52.482;13.432;2023-03-16T07:57:15;10.30;;;3.20;;
4806;SDS011;2417;52.482;13.432;2023-03-16T07:59:43;10.43;;;2.90;;
4806;SDS011;2417;52.482;13.432;2023-03-16T08:02:14;14.20;;;3.30;;
4806;SDS011;2417;52.482;13.432;2023-03-16T08:04:44;10.40;;;3.00;;
4806;SDS011;2417;52.482;13.432;2023-03-16T08:07:13;10.63;;;3.20;;
4806;SDS011;2417;52.482;13.432;2023-03-16T08:09:53;12.80;;;2.80;;
4806;SDS011;2417;52.482;13.432;2023-03-16T08:12:27;8.10;;;2.70;;
4806;SDS011;2417;52.482;13.432;2023-03-16T08:14:55;11.13;;;2.93;;
4806;SDS011;2417;52.482;13.432;2023-03-16T08:17:26;7.93;;;2.20;;
4806;SDS011;2417;52.482;13.432;2023-03-16T08:19:56;9.80;;;2.13;;
4806;SDS011;2417;52.482;13.432;2023-03-16T08:22:25;8.63;;;2.73;;
4806;SDS011;2417;52.482;13.432;2023-03-16T08:24:55;10.10;;;2.50;;
4806;SDS011;2417;52.482;13.432;2023-03-16T08:27:23;9.70;;;3.00;;
4806;SDS011;2417;52.482;13.432;2023-03-16T08:29:56;8.40;;;2.50;;
4806;SDS011;2417;52.482;13.432;2023-03-16T08:32:32;9.93;;;3.23;;
4806;SDS011;2417;52.482;13.432;2023-03-16T08:35:00;11.60;;;2.77;;
4806;SDS011;2417;52.482;13.432;2023-03-16T08:37:28;7.40;;;2.53;;
4806;SDS011;2417;52.482;13.432;2023-03-16T08:39:57;10.63;;;2.47;;
4806;SDS011;2417;52.482;13.432;2023-03-16T08:42:28;9.10;;;2.13;;
4806;SDS011;2417;52.482;13.432;2023-03-16T08:44:59;14.03;;;2.53;;
4806;SDS011;2417;52.482;13.432;2023-03-16T08:47:39;9.57;;;2.30;;
4806;SDS011;2417;52.482;13.432;2023-03-16T08:50:10;8.63;;;2.20;;
4806;SDS011;2417;52.482;13.432;2023-03-16T08:52:38;8.47;;;2.40;;
4806;SDS011;2417;52.482;13.432;2023-03-16T08:55:10;10.00;;;2.67;;
4806;SDS011;2417;52.482;13.432;2023-03-16T08:57:38;10.43;;;2.57;;
4806;SDS011;2417;52.482;13.432;2023-03-16T09:00:06;15.87;;;2.20;;
4806;SDS011;2417;52.482;13.432;2023-03-16T09:02:39;7.80;;;2.13;;
4806;SDS011;2417;52.482;13.432;2023-03-16T09:05:07;10.13;;;2.73;;
4806;SDS011;2417;52.482;13.432;2023-03-16T09:07:35;7.43;;;2.30;;
4806;SDS011;2417;52.482;13.432;2023-03-16T09:10:05;10.90;;;2.53;;
4806;SDS011;2417;52.482;13.432;2023-03-16T09:12:35;9.90;;;2.00;;
4806;SDS011;2417;52.482;13.432;2023-03-16T09:15:03;11.23;;;2.00;;
4806;SDS011;2417;52.482;13.432;2023-03-16T09:17:31;8.40;;;2.10;;
4806;SDS011;2417;52.482;13.432;2023-03-16T09:20:00;6.67;;;1.47;;
4806;SDS011;2417;52.482;13.432;2023-03-16T09:22:47;8.60;;;2.40;;
4806;SDS011;2417;52.482;13.432;2023-03-16T09:25:14;11.43;;;2.10;;
4806;SDS011;2417;52.482;13.432;2023-03-16T09:27:43;8.87;;;1.77;;
4806;SDS011;2417;52.482;13.432;2023-03-16T09:30:12;10.17;;;2.00;;
4806;SDS011;2417;52.482;13.432;2023-03-16T09:32:42;7.50;;;1.83;;
4806;SDS011;2417;52.482;13.432;2023-03-16T09:35:10;12.47;;;2.10;;
4806;SDS011;2417;52.482;13.432;2023-03-16T09:37:38;7.83;;;1.90;;
4806;SDS011;2417;52.482;13.432;2023-03-16T09:40:21;8.70;;;2.40;;
4806;SDS011;2417;52.482;13.432;2023-03-16T09:42:55;10.50;;;2.00;;
4806;SDS011;2417;52.482;13.432;2023-03-16T09:45:30;7.23;;;1.80;;
4806;SDS011;2417;52.482;13.432;2023-03-16T09:48:00;10.57;;;2.00;;
4806;SDS011;2417;52.482;13.432;2023-03-16T09:50:30;7.50;;;2.33;;
4806;SDS011;2417;52.482;13.432;2023-03-16T09:53:16;9.63;;;1.53;;
4806;SDS011;2417;52.482;13.432;2023-03-16T09:55:45;8.57;;;2.60;;
4806;SDS011;2417;52.482;13.432;2023-03-16T09:58:17;7.67;;;1.70;;
4806;SDS011;2417;52.482;13.432;2023-03-16T10:00:47;7.70;;;1.97;;
4806;SDS011;2417;52.482;13.432;2023-03-16T10:03:23;10.17;;;2.40;;
4806;SDS011;2417;52.482;13.432;2023-03-16T10:05:57;9.20;;;2.13;;
4806;SDS011;2417;52.482;13.432;2023-03-16T10:08:27;8.67;;;2.70;;
4806;SDS011;2417;52.482;13.432;2023-03-16T10:11:13;8.20;;;2.13;;
4806;SDS011;2417;52.482;13.432;2023-03-16T10:13:47;10.37;;;3.10;;
4806;SDS011;2417;52.482;13.432;2023-03-16T10:16:17;8.37;;;2.17;;
4806;SDS011;2417;52.482;13.432;2023-03-16T10:18:49;7.40;;;1.87;;
4806;SDS011;2417;52.482;13.432;2023-03-16T10:21:20;7.80;;;1.90;;
4806;SDS011;2417;52.482;13.432;2023-03-16T10:23:48;8.23;;;2.23;;
4806;SDS011;2417;52.482;13.432;2023-03-16T10:26:19;8.53;;;1.93;;
4806;SDS011;2417;52.482;13.432;2023-03-16T10:28:51;6.50;;;1.77;;
4806;SDS011;2417;52.482;13.432;2023-03-16T10:31:20;7.97;;;1.90;;
4806;SDS011;2417;52.482;13.432;2023-03-16T10:33:49;8.10;;;2.00;;
4806;SDS011;2417;52.482;13.432;2023-03-16T10:36:22;8.17;;;1.80;;
4806;SDS011;2417;52.482;13.432;2023-03-16T10:38:52;6.90;;;1.77;;
4806;SDS011;2417;52.482;13.432;2023-03-16T10:41:23;10.20;;;1.90;;
4806;SDS011;2417;52.482;13.432;2023-03-16T10:43:54;6.70;;;1.83;;
4806;SDS011;2417;52.482;13.432;2023-03-16T10:46:24;7.47;;;2.30;;
4806;SDS011;2417;52.482;13.432;2023-03-16T10:48:53;7.97;;;1.90;;
4806;SDS011;2417;52.482;13.432;2023-03-16T10:51:26;10.63;;;2.67;;
4806;SDS011;2417;52.482;13.432;2023-03-16T10:53:56;13.67;;;2.30;;
4806;SDS011;2417;52.482;13.432;2023-03-16T10:56:30;6.50;;;1.93;;
4806;SDS011;2417;52.482;13.432;2023-03-16T10:59:12;7.50;;;2.43;;
4806;SDS011;2417;52.482;13.432;2023-03-16T11:01:43;10.00;;;2.30;;
4806;SDS011;2417;52.482;13.432;2023-03-16T11:04:12;10.87;;;3.30;;
4806;SDS011;2417;52.482;13.432;2023-03-16T11:06:46;8.73;;;2.27;;
4806;SDS011;2417;52.482;13.432;2023-03-16T11:09:18;7.00;;;2.20;;
4806;SDS011;2417;52.482;13.432;2023-03-16T11:11:46;7.07;;;2.20;;
4806;SDS011;2417;52.482;13.432;2023-03-16T11:14:17;12.40;;;3.13;;
4806;SDS011;2417;52.482;13.432;2023-03-16T11:16:46;8.70;;;3.17;;
4806;SDS011;2417;52.482;13.432;2023-03-16T11:19:17;8.27;;;2.70;;
4806;SDS011;2417;52.482;13.432;2023-03-16T11:21:49;6.40;;;1.80;;
4806;SDS011;2417;52.482;13.432;2023-03-16T11:24:22;28.97;;;2.47;;
4806;SDS011;2417;52.482;13.432;2023-03-16T11:26:52;10.20;;;2.93;;
4806;SDS011;2417;52.482;13.432;2023-03-16T11:29:25;7.97;;;1.60;;
4806;SDS011;2417;52.482;13.432;2023-03-16T11:31:54;7.13;;;2.07;;
4806;SDS011;2417;52.482;13.432;2023-03-16T11:34:26;10.60;;;2.97;;
4806;SDS011;2417;52.482;13.432;2023-03-16T11:36:54;9.97;;;3.00;;
4806;SDS011;2417;52.482;13.432;2023-03-16T11:39:29;11.70;;;2.63;;
4806;SDS011;2417;52.482;13.432;2023-03-16T11:42:02;8.07;;;1.60;;
4806;SDS011;2417;52.482;13.432;2023-03-16T11:44:34;6.30;;;1.60;;
4806;SDS011;2417;52.482;13.432;2023-03-16T11:47:06;9.57;;;3.63;;
4806;SDS011;2417;52.482;13.432;2023-03-16T11:49:41;9.00;;;1.87;;
4806;SDS011;2417;52.482;13.432;2023-03-16T11:52:14;7.23;;;2.63;;
4806;SDS011;2417;52.482;13.432;2023-03-16T11:54:48;5.93;;;1.60;;
4806;SDS011;2417;52.482;13.432;2023-03-16T11:57:26;6.37;;;1.27;;
4806;SDS011;2417;52.482;13.432;2023-03-16T12:00:04;11.13;;;1.97;;
4806;SDS011;2417;52.482;13.432;2023-03-16T12:02:38;6.50;;;1.60;;
4806;SDS011;2417;52.482;13.432;2023-03-16T12:05:19;6.67;;;1.33;;
4806;SDS011;2417;52.482;13.432;2023-03-16T12:07:51;9.50;;;1.50;;
4806;SDS011;2417;52.482;13.432;2023-03-16T12:10:24;6.77;;;1.60;;
4806;SDS011;2417;52.482;13.432;2023-03-16T12:12:59;8.90;;;3.30;;
4806;SDS011;2417;52.482;13.432;2023-03-16T12:15:33;6.00;;;1.93;;
4806;SDS011;2417;52.482;13.432;2023-03-16T12:18:03;5.77;;;1.67;;
4806;SDS011;2417;52.482;13.432;2023-03-16T12:20:42;6.97;;;2.07;;
4806;SDS011;2417;52.482;13.432;2023-03-16T12:23:15;10.73;;;3.47;;
4806;SDS011;2417;52.482;13.432;2023-03-16T12:25:49;8.20;;;1.80;;
4806;SDS011;2417;52.482;13.432;2023-03-16T12:28:22;6.30;;;1.77;;
4806;SDS011;2417;52.482;13.432;2023-03-16T12:30:57;5.33;;;1.47;;
4806;SDS011;2417;52.482;13.432;2023-03-16T12:33:32;8.47;;;2.90;;
4806;SDS011;2417;52.482;13.432;2023-03-16T12:36:06;7.03;;;2.23;;
4806;SDS011;2417;52.482;13.432;2023-03-16T12:38:39;9.80;;;2.20;;
4806;SDS011;2417;52.482;13.432;2023-03-16T12:41:16;8.13;;;2.00;;
4806;SDS011;2417;52.482;13.432;2023-03-16T12:46:37;9.10;;;2.47;;
4806;SDS011;2417;52.482;13.432;2023-03-16T12:49:06;7.13;;;1.63;;
4806;SDS011;2417;52.482;13.432;2023-03-16T12:51:36;6.63;;;1.90;;
4806;SDS011;2417;52.482;13.432;2023-03-16T12:54:05;8.10;;;2.23;;
4806;SDS011;2417;52.482;13.432;2023-03-16T12:56:35;8.63;;;1.50;;
4806;SDS011;2417;52.482;13.432;2023-03-16T12:59:14;12.60;;;4.30;;
4806;SDS011;2417;52.482;13.432;2023-03-16T13:01:44;3.30;;;0.90;;
4806;SDS011;2417;52.482;13.432;2023-03-16T13:04:15;10.20;;;1.70;;
4806;SDS011;2417;52.482;13.432;2023-03-16T13:06:45;9.13;;;2.77;;
4806;SDS011;2417;52.482;13.432;2023-03-16T13:09:16;6.47;;;1.83;;
4806;SDS011;2417;52.482;13.432;2023-03-16T13:11:46;9.80;;;3.10;;
4806;SDS011;2417;52.482;13.432;2023-03-16T13:14:29;10.50;;;3.40;;
4806;SDS011;2417;52.482;13.432;2023-03-16T13:17:03;7.57;;;1.90;;
4806;SDS011;2417;52.482;13.432;2023-03-16T13:19:31;11.40;;;1.97;;
4806;SDS011;2417;52.482;13.432;2023-03-16T13:22:04;7.80;;;2.10;;
4806;SDS011;2417;52.482;13.432;2023-03-16T13:24:50;7.33;;;2.13;;
4806;SDS011;2417;52.482;13.432;2023-03-16T13:27:19;8.83;;;2.50;;
4806;SDS011;2417;52.482;13.432;2023-03-16T13:29:54;6.80;;;1.93;;
4806;SDS011;2417;52.482;13.432;2023-03-16T13:32:24;9.07;;;2.30;;
4806;SDS011;2417;52.482;13.432;2023-03-16T13:34:55;13.50;;;3.30;;
4806;SDS011;2417;52.482;13.432;2023-03-16T13:37:26;6.50;;;1.80;;
4806;SDS011;2417;52.482;13.432;2023-03-16T13:39:55;16.40;;;2.40;;
4806;SDS011;2417;52.482;13.432;2023-03-16T13:42:24;11.03;;;2.20;;
4806;SDS011;2417;52.482;13.432;2023-03-16T13:44:55;5.50;;;1.53;;
4806;SDS011;2417;52.482;13.432;2023-03-16T13:47:25;16.93;;;3.37;;
4806;SDS011;2417;52.482;13.432;2023-03-16T13:49:54;7.00;;;1.60;;
4806;SDS011;2417;52.482;13.432;2023-03-16T13:52:24;7.23;;;1.87;;
4806;SDS011;2417;52.482;13.432;2023-03-16T13:54:53;7.03;;;1.60;;
4806;SDS011;2417;52.482;13.432;2023-03-16T13:57:21;6.37;;;1.70;;
4806;SDS011;2417;52.482;13.432;2023-03-16T13:59:50;9.43;;;2.97;;
4806;SDS011;2417;52.482;13.432;2023-03-16T14:02:25;8.73;;;2.50;;
4806;SDS011;2417;52.482;13.432;2023-03-16T14:04:54;5.73;;;1.40;;
4806;SDS011;2417;52.482;13.432;2023-03-16T14:07:22;11.73;;;2.47;;
4806;SDS011;2417;52.482;13.432;2023-03-16T14:09:51;5.87;;;1.90;;
4806;SDS011;2417;52.482;13.432;2023-03-16T14:12:24;6.13;;;1.60;;
4806;SDS011;2417;52.482;13.432;2023-03-16T14:14:53;6.93;;;2.47;;
4806;SDS011;2417;52.482;13.432;2023-03-16T14:17:21;9.63;;;2.60;;
4806;SDS011;2417;52.482;13.432;2023-03-16T14:19:52;14.23;;;3.30;;
4806;SDS011;2417;52.482;13.432;2023-03-16T14:22:24;9.77;;;2.30;;
4806;SDS011;2417;52.482;13.432;2023-03-16T14:24:55;8.73;;;2.30;;
4806;SDS011;2417;52.482;13.432;2023-03-16T14:27:25;9.40;;;1.80;;
4806;SDS011;2417;52.482;13.432;2023-03-16T14:29:58;5.73;;;1.20;;
4806;SDS011;2417;52.482;13.432;2023-03-16T14:32:29;6.30;;;2.03;;
4806;SDS011;2417;52.482;13.432;2023-03-16T14:35:02;6.43;;;1.67;;
4806;SDS011;2417;52.482;13.432;2023-03-16T14:37:34;3.50;;;1.07;;
4806;SDS011;2417;52.482;13.432;2023-03-16T14:40:03;6.00;;;1.20;;
4806;SDS011;2417;52.482;13.432;2023-03-16T14:42:32;7.43;;;1.40;;
4806;SDS011;2417;52.482;13.432;2023-03-16T14:45:01;7.00;;;2.23;;
4806;SDS011;2417;52.482;13.432;2023-03-16T14:47:32;6.20;;;1.50;;
4806;SDS011;2417;52.482;13.432;2023-03-16T14:50:06;6.80;;;1.67;;
4806;SDS011;2417;52.482;13.432;2023-03-16T14:52:35;5.73;;;1.70;;
4806;SDS011;2417;52.482;13.432;2023-03-16T14:55:08;6.30;;;1.60;;
4806;SDS011;2417;52.482;13.432;2023-03-16T14:57:38;8.43;;;2.03;;
4806;SDS011;2417;52.482;13.432;2023-03-16T15:00:17;6.87;;;2.17;;
4806;SDS011;2417;52.482;13.432;2023-03-16T15:02:47;7.37;;;1.50;;
4806;SDS011;2417;52.482;13.432;2023-03-16T15:05:19;12.60;;;2.17;;
4806;SDS011;2417;52.482;13.432;2023-03-16T15:07:47;4.50;;;1.27;;
4806;SDS011;2417;52.482;13.432;2023-03-16T15:10:22;5.03;;;1.37;;
4806;SDS011;2417;52.482;13.432;2023-03-16T15:12:50;6.77;;;2.03;;
4806;SDS011;2417;52.482;13.432;2023-03-16T15:15:22;6.10;;;1.87;;
4806;SDS011;2417;52.482;13.432;2023-03-16T15:17:53;4.63;;;1.20;;
4806;SDS011;2417;52.482;13.432;2023-03-16T15:20:22;4.90;;;1.73;;